sensor_id;sensor_type;location;lat;lon;timestamp;pressure;altitude;pressure_sealevel;temperature;humidity
34566;BME280;20803;42.676;26.348;2022-07-21T00:01:23;98730.81;;;20.83;53.70
34566;BME280;20803;42.676;26.348;2022-07-21T00:03:48;98729.44;;;20.79;53.98
34566;BME280;20803;42.676;26.348;2022-07-21T00:06:14;98725.53;;;20.76;54.10
34566;BME280;20803;42.676;26.348;2022-07-21T00:08:39;98725.84;;;20.78;53.98
34566;BME280;20803;42.676;26.348;2022-07-21T00:11:05;98715.50;;;20.75;53.92
34566;BME280;20803;42.676;26.348;2022-07-21T00:13:31;98716.38;;;20.81;53.61
34566;BME280;20803;42.676;26.348;2022-07-21T00:15:56;98718.53;;;20.86;53.55
34566;BME280;20803;42.676;26.348;2022-07-21T00:18:24;98707.56;;;20.88;53.49
34566;BME280;20803;42.676;26.348;2022-07-21T00:20:49;98711.94;;;20.89;53.17
34566;BME280;20803;42.676;26.348;2022-07-21T00:23:15;98714.41;;;20.96;52.55
34566;BME280;20803;42.676;26.348;2022-07-21T00:25:41;98710.00;;;20.95;52.77
34566;BME280;20803;42.676;26.348;2022-07-21T00:28:06;98707.88;;;21.05;52.62
34566;BME280;20803;42.676;26.348;2022-07-21T00:30:32;98711.09;;;20.98;52.94
34566;BME280;20803;42.676;26.348;2022-07-21T00:32:58;98707.19;;;20.95;53.11
34566;BME280;20803;42.676;26.348;2022-07-21T00:35:24;98710.69;;;20.67;54.23
34566;BME280;20803;42.676;26.348;2022-07-21T00:37:49;98708.03;;;20.39;55.58
34566;BME280;20803;42.676;26.348;2022-07-21T00:40:15;98712.63;;;20.37;55.79
34566;BME280;20803;42.676;26.348;2022-07-21T00:42:43;98711.06;;;20.26;56.68
34566;BME280;20803;42.676;26.348;2022-07-21T00:45:10;98699.31;;;20.19;57.13
34566;BME280;20803;42.676;26.348;2022-07-21T00:47:36;98701.88;;;20.08;58.04
34566;BME280;20803;42.676;26.348;2022-07-21T00:50:07;98701.59;;;20.06;58.05
34566;BME280;20803;42.676;26.348;2022-07-21T00:52:33;98702.06;;;20.04;58.45
34566;BME280;20803;42.676;26.348;2022-07-21T00:54:59;98687.50;;;20.06;59.36
34566;BME280;20803;42.676;26.348;2022-07-21T00:57:25;98695.97;;;20.06;58.40
34566;BME280;20803;42.676;26.348;2022-07-21T00:59:50;98698.47;;;20.04;58.64
34566;BME280;20803;42.676;26.348;2022-07-21T01:02:16;98690.94;;;20.01;58.86
34566;BME280;20803;42.676;26.348;2022-07-21T01:04:42;98690.03;;;19.95;59.13
34566;BME280;20803;42.676;26.348;2022-07-21T01:07:07;98695.53;;;19.89;59.59
34566;BME280;20803;42.676;26.348;2022-07-21T01:09:34;98685.03;;;19.90;59.70
34566;BME280;20803;42.676;26.348;2022-07-21T01:12:01;98686.28;;;19.89;59.67
34566;BME280;20803;42.676;26.348;2022-07-21T01:14:27;98680.97;;;19.91;60.03
34566;BME280;20803;42.676;26.348;2022-07-21T01:16:53;98685.34;;;19.92;60.02
34566;BME280;20803;42.676;26.348;2022-07-21T01:19:18;98675.47;;;19.96;59.63
34566;BME280;20803;42.676;26.348;2022-07-21T01:21:46;98674.34;;;20.03;58.92
34566;BME280;20803;42.676;26.348;2022-07-21T01:24:12;98669.91;;;20.11;58.50
34566;BME280;20803;42.676;26.348;2022-07-21T01:26:45;98674.91;;;20.16;57.97
34566;BME280;20803;42.676;26.348;2022-07-21T01:29:11;98657.31;;;20.21;57.41
34566;BME280;20803;42.676;26.348;2022-07-21T01:31:38;98656.66;;;20.26;56.77
34566;BME280;20803;42.676;26.348;2022-07-21T01:34:04;98665.09;;;20.26;56.95
34566;BME280;20803;42.676;26.348;2022-07-21T01:36:30;98663.06;;;20.26;56.93
34566;BME280;20803;42.676;26.348;2022-07-21T01:38:56;98649.16;;;20.23;56.81
34566;BME280;20803;42.676;26.348;2022-07-21T01:41:40;98652.44;;;20.21;56.86
34566;BME280;20803;42.676;26.348;2022-07-21T01:44:08;98653.41;;;20.18;56.97
34566;BME280;20803;42.676;26.348;2022-07-21T01:46:40;98650.28;;;20.16;56.79
34566;BME280;20803;42.676;26.348;2022-07-21T01:49:06;98649.97;;;20.14;57.05
34566;BME280;20803;42.676;26.348;2022-07-21T01:51:33;98650.63;;;20.09;57.34
34566;BME280;20803;42.676;26.348;2022-07-21T01:53:59;98649.38;;;20.10;57.64
34566;BME280;20803;42.676;26.348;2022-07-21T01:56:25;98648.59;;;20.10;58.01
34566;BME280;20803;42.676;26.348;2022-07-21T01:58:54;98641.56;;;20.05;57.83
34566;BME280;20803;42.676;26.348;2022-07-21T02:01:21;98638.13;;;20.01;58.15
34566;BME280;20803;42.676;26.348;2022-07-21T02:03:49;98638.44;;;20.03;57.71
34566;BME280;20803;42.676;26.348;2022-07-21T02:06:15;98638.13;;;20.01;57.81
34566;BME280;20803;42.676;26.348;2022-07-21T02:08:41;98631.91;;;19.97;58.00
34566;BME280;20803;42.676;26.348;2022-07-21T02:11:10;98643.19;;;19.97;57.98
34566;BME280;20803;42.676;26.348;2022-07-21T02:13:36;98639.44;;;19.91;58.32
34566;BME280;20803;42.676;26.348;2022-07-21T02:16:02;98629.41;;;19.90;58.48
34566;BME280;20803;42.676;26.348;2022-07-21T02:18:28;98628.22;;;19.82;58.98
34566;BME280;20803;42.676;26.348;2022-07-21T02:20:54;98631.78;;;19.82;58.88
34566;BME280;20803;42.676;26.348;2022-07-21T02:23:22;98637.03;;;19.75;59.60
34566;BME280;20803;42.676;26.348;2022-07-21T02:25:47;98629.50;;;19.72;59.43
34566;BME280;20803;42.676;26.348;2022-07-21T02:28:13;98632.66;;;19.65;60.22
34566;BME280;20803;42.676;26.348;2022-07-21T02:30:39;98624.19;;;19.74;59.88
34566;BME280;20803;42.676;26.348;2022-07-21T02:33:05;98627.66;;;19.69;61.06
34566;BME280;20803;42.676;26.348;2022-07-21T02:35:30;98624.19;;;19.65;60.99
34566;BME280;20803;42.676;26.348;2022-07-21T02:37:56;98628.44;;;19.69;60.38
34566;BME280;20803;42.676;26.348;2022-07-21T02:40:22;98623.72;;;19.66;60.64
34566;BME280;20803;42.676;26.348;2022-07-21T02:42:47;98616.38;;;19.69;60.14
34566;BME280;20803;42.676;26.348;2022-07-21T02:45:13;98625.19;;;19.53;61.43
34566;BME280;20803;42.676;26.348;2022-07-21T02:50:28;98616.91;;;19.49;61.65
34566;BME280;20803;42.676;26.348;2022-07-21T02:52:57;98626.31;;;19.46;62.28
34566;BME280;20803;42.676;26.348;2022-07-21T02:55:24;98622.09;;;19.51;61.39
34566;BME280;20803;42.676;26.348;2022-07-21T02:58:03;98608.13;;;19.47;61.81
34566;BME280;20803;42.676;26.348;2022-07-21T03:00:29;98612.38;;;19.42;62.75
34566;BME280;20803;42.676;26.348;2022-07-21T03:02:54;98611.16;;;19.25;63.87
34566;BME280;20803;42.676;26.348;2022-07-21T03:05:20;98615.97;;;19.34;63.11
34566;BME280;20803;42.676;26.348;2022-07-21T03:07:45;98614.28;;;19.27;63.18
34566;BME280;20803;42.676;26.348;2022-07-21T03:10:10;98617.88;;;19.37;63.10
34566;BME280;20803;42.676;26.348;2022-07-21T03:12:36;98607.03;;;19.44;62.08
34566;BME280;20803;42.676;26.348;2022-07-21T03:15:02;98609.38;;;19.46;61.75
34566;BME280;20803;42.676;26.348;2022-07-21T03:17:27;98615.16;;;19.61;61.10
34566;BME280;20803;42.676;26.348;2022-07-21T03:19:53;98609.16;;;19.68;60.50
34566;BME280;20803;42.676;26.348;2022-07-21T03:22:18;98612.44;;;19.75;59.87
34566;BME280;20803;42.676;26.348;2022-07-21T03:24:44;98609.56;;;19.84;59.80
34566;BME280;20803;42.676;26.348;2022-07-21T03:27:09;98615.75;;;19.98;59.89
34566;BME280;20803;42.676;26.348;2022-07-21T03:29:35;98614.38;;;20.17;59.74
34566;BME280;20803;42.676;26.348;2022-07-21T03:32:00;98612.75;;;20.87;57.65
34566;BME280;20803;42.676;26.348;2022-07-21T03:34:26;98605.16;;;21.81;53.90
34566;BME280;20803;42.676;26.348;2022-07-21T03:36:51;98606.72;;;22.58;51.29
34566;BME280;20803;42.676;26.348;2022-07-21T03:39:16;98596.91;;;23.25;49.39
34566;BME280;20803;42.676;26.348;2022-07-21T03:41:45;98600.19;;;23.75;47.80
34566;BME280;20803;42.676;26.348;2022-07-21T03:44:10;98600.44;;;24.14;46.61
34566;BME280;20803;42.676;26.348;2022-07-21T03:46:36;98599.53;;;24.40;45.49
34566;BME280;20803;42.676;26.348;2022-07-21T03:49:01;98596.16;;;24.95;45.28
34566;BME280;20803;42.676;26.348;2022-07-21T03:51:27;98591.56;;;25.53;43.23
34566;BME280;20803;42.676;26.348;2022-07-21T03:53:52;98598.53;;;26.02;42.08
34566;BME280;20803;42.676;26.348;2022-07-21T03:56:17;98592.56;;;26.06;42.23
34566;BME280;20803;42.676;26.348;2022-07-21T03:58:43;98592.31;;;25.93;41.64
34566;BME280;20803;42.676;26.348;2022-07-21T04:01:08;98589.47;;;26.04;41.87
34566;BME280;20803;42.676;26.348;2022-07-21T04:03:34;98597.72;;;26.24;41.18
34566;BME280;20803;42.676;26.348;2022-07-21T04:06:00;98593.16;;;26.67;40.34
34566;BME280;20803;42.676;26.348;2022-07-21T04:08:26;98596.63;;;27.01;39.56
34566;BME280;20803;42.676;26.348;2022-07-21T04:10:52;98587.84;;;27.35;39.35
34566;BME280;20803;42.676;26.348;2022-07-21T04:13:17;98592.69;;;27.45;39.18
34566;BME280;20803;42.676;26.348;2022-07-21T04:15:43;98590.94;;;27.37;39.65
34566;BME280;20803;42.676;26.348;2022-07-21T04:18:08;98591.81;;;27.62;39.29
34566;BME280;20803;42.676;26.348;2022-07-21T04:20:34;98590.53;;;27.87;38.55
34566;BME280;20803;42.676;26.348;2022-07-21T04:22:59;98580.84;;;28.20;37.35
34566;BME280;20803;42.676;26.348;2022-07-21T04:25:25;98587.88;;;28.19;37.37
34566;BME280;20803;42.676;26.348;2022-07-21T04:27:51;98584.00;;;28.41;37.03
34566;BME280;20803;42.676;26.348;2022-07-21T04:30:18;98592.09;;;28.37;37.71
34566;BME280;20803;42.676;26.348;2022-07-21T04:32:45;98586.22;;;28.72;37.20
34566;BME280;20803;42.676;26.348;2022-07-21T04:35:12;98584.88;;;28.54;37.14
34566;BME280;20803;42.676;26.348;2022-07-21T04:37:37;98587.47;;;28.77;36.29
34566;BME280;20803;42.676;26.348;2022-07-21T04:40:05;98583.75;;;29.00;36.38
34566;BME280;20803;42.676;26.348;2022-07-21T04:42:30;98587.16;;;28.80;36.42
34566;BME280;20803;42.676;26.348;2022-07-21T04:44:56;98585.69;;;29.11;36.04
34566;BME280;20803;42.676;26.348;2022-07-21T04:47:21;98592.63;;;29.34;35.51
34566;BME280;20803;42.676;26.348;2022-07-21T04:49:47;98590.94;;;29.26;35.30
34566;BME280;20803;42.676;26.348;2022-07-21T04:52:12;98596.75;;;29.20;35.79
34566;BME280;20803;42.676;26.348;2022-07-21T04:54:38;98593.13;;;29.01;35.50
34566;BME280;20803;42.676;26.348;2022-07-21T04:57:04;98595.66;;;28.86;35.96
34566;BME280;20803;42.676;26.348;2022-07-21T04:59:31;98595.75;;;28.99;36.10
34566;BME280;20803;42.676;26.348;2022-07-21T05:01:57;98596.06;;;29.33;35.51
34566;BME280;20803;42.676;26.348;2022-07-21T05:04:23;98599.13;;;29.35;35.50
34566;BME280;20803;42.676;26.348;2022-07-21T05:06:48;98594.75;;;29.79;35.20
34566;BME280;20803;42.676;26.348;2022-07-21T05:09:14;98596.69;;;30.03;34.78
34566;BME280;20803;42.676;26.348;2022-07-21T05:11:40;98597.84;;;30.13;34.35
34566;BME280;20803;42.676;26.348;2022-07-21T05:14:05;98597.63;;;30.50;33.97
34566;BME280;20803;42.676;26.348;2022-07-21T05:16:31;98601.13;;;30.83;33.20
34566;BME280;20803;42.676;26.348;2022-07-21T05:18:56;98602.44;;;31.08;33.32
34566;BME280;20803;42.676;26.348;2022-07-21T05:21:22;98596.78;;;31.02;32.80
34566;BME280;20803;42.676;26.348;2022-07-21T05:23:48;98599.47;;;30.74;33.39
34566;BME280;20803;42.676;26.348;2022-07-21T05:26:13;98600.94;;;30.68;33.22
34566;BME280;20803;42.676;26.348;2022-07-21T05:28:39;98604.41;;;30.87;32.87
34566;BME280;20803;42.676;26.348;2022-07-21T05:31:06;98601.53;;;31.13;32.67
34566;BME280;20803;42.676;26.348;2022-07-21T05:33:32;98592.94;;;31.55;31.78
34566;BME280;20803;42.676;26.348;2022-07-21T05:35:57;98608.28;;;31.36;32.67
34566;BME280;20803;42.676;26.348;2022-07-21T05:38:23;98615.22;;;31.75;31.78
34566;BME280;20803;42.676;26.348;2022-07-21T05:40:48;98610.72;;;31.87;31.82
34566;BME280;20803;42.676;26.348;2022-07-21T05:43:14;98608.31;;;31.78;31.55
34566;BME280;20803;42.676;26.348;2022-07-21T05:45:39;98606.22;;;31.58;31.47
34566;BME280;20803;42.676;26.348;2022-07-21T05:48:05;98602.81;;;31.59;31.77
34566;BME280;20803;42.676;26.348;2022-07-21T05:50:30;98603.25;;;32.12;31.20
34566;BME280;20803;42.676;26.348;2022-07-21T05:52:56;98610.56;;;32.70;30.75
34566;BME280;20803;42.676;26.348;2022-07-21T05:55:22;98598.63;;;33.02;30.46
34566;BME280;20803;42.676;26.348;2022-07-21T05:57:47;98598.06;;;33.70;29.60
34566;BME280;20803;42.676;26.348;2022-07-21T06:00:15;98605.91;;;33.54;29.56
34566;BME280;20803;42.676;26.348;2022-07-21T06:02:41;98606.91;;;33.95;28.82
34566;BME280;20803;42.676;26.348;2022-07-21T06:05:06;98605.69;;;33.67;28.94
34566;BME280;20803;42.676;26.348;2022-07-21T06:07:33;98611.47;;;33.60;29.18
34566;BME280;20803;42.676;26.348;2022-07-21T06:09:59;98609.59;;;34.00;29.09
34566;BME280;20803;42.676;26.348;2022-07-21T06:12:26;98600.38;;;33.94;29.02
34566;BME280;20803;42.676;26.348;2022-07-21T06:14:52;98611.16;;;34.32;29.11
34566;BME280;20803;42.676;26.348;2022-07-21T06:17:17;98623.25;;;34.38;28.57
34566;BME280;20803;42.676;26.348;2022-07-21T06:19:43;98608.19;;;34.70;27.64
34566;BME280;20803;42.676;26.348;2022-07-21T06:22:08;98597.22;;;33.39;29.37
34566;BME280;20803;42.676;26.348;2022-07-21T06:24:34;98587.91;;;33.10;30.07
34566;BME280;20803;42.676;26.348;2022-07-21T06:26:59;98595.81;;;33.17;29.66
34566;BME280;20803;42.676;26.348;2022-07-21T06:29:24;98607.75;;;33.36;29.84
34566;BME280;20803;42.676;26.348;2022-07-21T06:31:50;98599.72;;;33.50;29.66
34566;BME280;20803;42.676;26.348;2022-07-21T06:34:16;98607.59;;;32.27;31.49
34566;BME280;20803;42.676;26.348;2022-07-21T06:36:41;98598.88;;;32.76;30.98
34566;BME280;20803;42.676;26.348;2022-07-21T06:39:07;98599.75;;;32.06;32.24
34566;BME280;20803;42.676;26.348;2022-07-21T06:41:32;98600.78;;;32.37;31.72
34566;BME280;20803;42.676;26.348;2022-07-21T06:43:58;98603.53;;;32.22;32.33
34566;BME280;20803;42.676;26.348;2022-07-21T06:46:24;98605.50;;;32.06;32.19
34566;BME280;20803;42.676;26.348;2022-07-21T06:48:49;98589.75;;;32.28;31.57
34566;BME280;20803;42.676;26.348;2022-07-21T06:51:15;98597.25;;;31.82;32.70
34566;BME280;20803;42.676;26.348;2022-07-21T06:53:40;98601.09;;;32.05;32.55
34566;BME280;20803;42.676;26.348;2022-07-21T06:56:07;98595.75;;;32.09;32.09
34566;BME280;20803;42.676;26.348;2022-07-21T06:58:34;98597.63;;;32.28;31.94
34566;BME280;20803;42.676;26.348;2022-07-21T07:01:00;98591.84;;;31.58;32.63
34566;BME280;20803;42.676;26.348;2022-07-21T07:03:26;98598.28;;;32.70;31.56
34566;BME280;20803;42.676;26.348;2022-07-21T07:05:52;98600.81;;;33.24;30.61
34566;BME280;20803;42.676;26.348;2022-07-21T07:08:18;98589.63;;;33.06;31.18
34566;BME280;20803;42.676;26.348;2022-07-21T07:10:45;98596.06;;;33.50;30.35
34566;BME280;20803;42.676;26.348;2022-07-21T07:13:11;98586.44;;;32.45;32.18
34566;BME280;20803;42.676;26.348;2022-07-21T07:15:39;98596.03;;;32.83;30.92
34566;BME280;20803;42.676;26.348;2022-07-21T07:18:04;98596.59;;;32.74;30.68
34566;BME280;20803;42.676;26.348;2022-07-21T07:20:30;98590.78;;;33.10;30.70
34566;BME280;20803;42.676;26.348;2022-07-21T07:22:56;98592.09;;;33.75;29.90
34566;BME280;20803;42.676;26.348;2022-07-21T07:25:21;98599.91;;;34.74;28.94
34566;BME280;20803;42.676;26.348;2022-07-21T07:27:49;98597.94;;;34.84;28.65
34566;BME280;20803;42.676;26.348;2022-07-21T07:30:16;98591.88;;;34.34;29.17
34566;BME280;20803;42.676;26.348;2022-07-21T07:32:42;98588.56;;;34.53;28.41
34566;BME280;20803;42.676;26.348;2022-07-21T07:35:09;98578.84;;;33.72;29.12
34566;BME280;20803;42.676;26.348;2022-07-21T07:37:35;98594.78;;;34.04;29.22
34566;BME280;20803;42.676;26.348;2022-07-21T07:40:03;98592.06;;;34.51;27.90
34566;BME280;20803;42.676;26.348;2022-07-21T07:42:30;98590.50;;;33.67;29.02
34566;BME280;20803;42.676;26.348;2022-07-21T07:44:55;98590.09;;;34.61;27.39
34566;BME280;20803;42.676;26.348;2022-07-21T07:47:20;98587.88;;;34.07;27.96
34566;BME280;20803;42.676;26.348;2022-07-21T07:49:46;98586.03;;;34.65;27.59
34566;BME280;20803;42.676;26.348;2022-07-21T07:52:14;98589.47;;;35.58;26.33
34566;BME280;20803;42.676;26.348;2022-07-21T07:54:40;98596.44;;;35.55;26.01
34566;BME280;20803;42.676;26.348;2022-07-21T07:57:05;98596.56;;;34.92;26.75
34566;BME280;20803;42.676;26.348;2022-07-21T07:59:31;98589.91;;;34.59;26.87
34566;BME280;20803;42.676;26.348;2022-07-21T08:01:56;98592.03;;;34.59;27.23
34566;BME280;20803;42.676;26.348;2022-07-21T08:04:21;98585.25;;;34.79;27.55
34566;BME280;20803;42.676;26.348;2022-07-21T08:06:47;98584.09;;;35.55;25.93
34566;BME280;20803;42.676;26.348;2022-07-21T08:09:12;98596.00;;;35.91;26.13
34566;BME280;20803;42.676;26.348;2022-07-21T08:11:39;98581.44;;;35.09;26.65
34566;BME280;20803;42.676;26.348;2022-07-21T08:14:05;98574.72;;;35.47;26.52
34566;BME280;20803;42.676;26.348;2022-07-21T08:16:30;98584.56;;;35.44;26.46
34566;BME280;20803;42.676;26.348;2022-07-21T08:18:56;98578.13;;;35.53;26.08
34566;BME280;20803;42.676;26.348;2022-07-21T08:21:21;98582.03;;;35.48;27.01
34566;BME280;20803;42.676;26.348;2022-07-21T08:23:47;98566.44;;;35.11;27.12
34566;BME280;20803;42.676;26.348;2022-07-21T08:26:12;98568.22;;;34.98;27.70
34566;BME280;20803;42.676;26.348;2022-07-21T08:28:38;98569.75;;;34.52;27.71
34566;BME280;20803;42.676;26.348;2022-07-21T08:31:03;98569.13;;;34.61;27.68
34566;BME280;20803;42.676;26.348;2022-07-21T08:33:30;98574.75;;;34.44;27.45
34566;BME280;20803;42.676;26.348;2022-07-21T08:35:55;98567.28;;;34.33;27.46
34566;BME280;20803;42.676;26.348;2022-07-21T08:38:21;98570.97;;;34.03;27.74
34566;BME280;20803;42.676;26.348;2022-07-21T08:40:47;98571.50;;;34.17;27.85
34566;BME280;20803;42.676;26.348;2022-07-21T08:43:12;98563.00;;;34.42;28.40
34566;BME280;20803;42.676;26.348;2022-07-21T08:45:40;98579.22;;;34.22;28.11
34566;BME280;20803;42.676;26.348;2022-07-21T08:48:07;98569.78;;;33.99;28.47
34566;BME280;20803;42.676;26.348;2022-07-21T08:50:35;98568.22;;;34.28;28.00
34566;BME280;20803;42.676;26.348;2022-07-21T08:53:01;98567.03;;;34.54;27.49
34566;BME280;20803;42.676;26.348;2022-07-21T08:55:31;98576.38;;;34.85;27.05
34566;BME280;20803;42.676;26.348;2022-07-21T08:57:57;98562.72;;;34.78;27.02
34566;BME280;20803;42.676;26.348;2022-07-21T09:00:23;98553.69;;;35.14;27.38
34566;BME280;20803;42.676;26.348;2022-07-21T09:02:49;98555.88;;;35.63;26.08
34566;BME280;20803;42.676;26.348;2022-07-21T09:05:14;98559.06;;;35.25;26.35
34566;BME280;20803;42.676;26.348;2022-07-21T09:07:52;98554.78;;;35.26;26.70
34566;BME280;20803;42.676;26.348;2022-07-21T09:10:29;98549.44;;;35.22;27.24
34566;BME280;20803;42.676;26.348;2022-07-21T09:12:57;98551.16;;;35.18;27.33
34566;BME280;20803;42.676;26.348;2022-07-21T09:15:26;98546.09;;;34.46;28.15
34566;BME280;20803;42.676;26.348;2022-07-21T09:18:05;98549.91;;;34.48;28.69
34566;BME280;20803;42.676;26.348;2022-07-21T09:20:32;98552.03;;;34.40;28.02
34566;BME280;20803;42.676;26.348;2022-07-21T09:23:12;98537.44;;;34.46;27.94
34566;BME280;20803;42.676;26.348;2022-07-21T09:28:21;98541.75;;;34.77;27.16
34566;BME280;20803;42.676;26.348;2022-07-21T09:36:10;98541.34;;;35.21;26.56
34566;BME280;20803;42.676;26.348;2022-07-21T09:41:14;98536.41;;;34.58;26.72
34566;BME280;20803;42.676;26.348;2022-07-21T09:43:49;98532.41;;;34.46;26.81
34566;BME280;20803;42.676;26.348;2022-07-21T09:46:17;98544.69;;;34.62;27.10
34566;BME280;20803;42.676;26.348;2022-07-21T09:48:46;98533.69;;;34.60;27.26
34566;BME280;20803;42.676;26.348;2022-07-21T09:51:27;98529.03;;;34.80;27.31
34566;BME280;20803;42.676;26.348;2022-07-21T09:56:37;98535.53;;;34.33;27.38
34566;BME280;20803;42.676;26.348;2022-07-21T09:59:04;98533.28;;;34.72;26.84
34566;BME280;20803;42.676;26.348;2022-07-21T10:01:30;98535.00;;;34.82;26.75
34566;BME280;20803;42.676;26.348;2022-07-21T10:03:58;98526.94;;;34.73;27.21
34566;BME280;20803;42.676;26.348;2022-07-21T10:06:27;98519.84;;;35.07;26.31
34566;BME280;20803;42.676;26.348;2022-07-21T10:08:54;98527.75;;;35.06;26.44
34566;BME280;20803;42.676;26.348;2022-07-21T10:11:20;98533.31;;;34.64;26.89
34566;BME280;20803;42.676;26.348;2022-07-21T10:13:46;98525.94;;;34.15;28.05
34566;BME280;20803;42.676;26.348;2022-07-21T10:16:12;98528.84;;;34.08;28.20
34566;BME280;20803;42.676;26.348;2022-07-21T10:19:14;98523.44;;;34.12;27.95
34566;BME280;20803;42.676;26.348;2022-07-21T10:24:27;98519.00;;;34.34;27.55
34566;BME280;20803;42.676;26.348;2022-07-21T10:27:07;98510.97;;;34.02;27.90
34566;BME280;20803;42.676;26.348;2022-07-21T10:29:54;98519.63;;;34.02;28.55
34566;BME280;20803;42.676;26.348;2022-07-21T10:32:26;98503.22;;;34.19;28.43
34566;BME280;20803;42.676;26.348;2022-07-21T10:34:57;98509.44;;;34.64;27.79
34566;BME280;20803;42.676;26.348;2022-07-21T10:42:35;98505.97;;;33.95;29.19
34566;BME280;20803;42.676;26.348;2022-07-21T10:45:01;98502.41;;;34.34;28.15
34566;BME280;20803;42.676;26.348;2022-07-21T10:47:27;98503.34;;;34.92;27.09
34566;BME280;20803;42.676;26.348;2022-07-21T10:50:00;98503.78;;;34.88;27.18
34566;BME280;20803;42.676;26.348;2022-07-21T10:57:42;98500.59;;;34.61;27.55
34566;BME280;20803;42.676;26.348;2022-07-21T11:00:19;98494.91;;;34.86;28.07
34566;BME280;20803;42.676;26.348;2022-07-21T11:05:26;98491.38;;;34.95;27.76
34566;BME280;20803;42.676;26.348;2022-07-21T11:10:46;98493.72;;;34.89;27.30
34566;BME280;20803;42.676;26.348;2022-07-21T11:13:13;98488.56;;;34.88;27.53
34566;BME280;20803;42.676;26.348;2022-07-21T11:16:08;98492.84;;;35.12;26.88
34566;BME280;20803;42.676;26.348;2022-07-21T11:18:33;98489.94;;;35.12;27.05
34566;BME280;20803;42.676;26.348;2022-07-21T11:21:11;98495.47;;;34.92;27.00
34566;BME280;20803;42.676;26.348;2022-07-21T11:26:04;98482.31;;;34.59;27.30
34566;BME280;20803;42.676;26.348;2022-07-21T11:28:30;98489.59;;;34.28;27.85
34566;BME280;20803;42.676;26.348;2022-07-21T11:33:35;98486.97;;;33.84;28.37
34566;BME280;20803;42.676;26.348;2022-07-21T11:36:02;98486.03;;;34.44;27.62
34566;BME280;20803;42.676;26.348;2022-07-21T11:38:28;98486.34;;;33.86;28.17
34566;BME280;20803;42.676;26.348;2022-07-21T11:40:53;98485.31;;;34.36;27.84
34566;BME280;20803;42.676;26.348;2022-07-21T11:43:18;98483.06;;;34.67;27.88
34566;BME280;20803;42.676;26.348;2022-07-21T11:45:53;98477.50;;;34.61;27.35
34566;BME280;20803;42.676;26.348;2022-07-21T11:48:32;98474.00;;;34.71;26.95
34566;BME280;20803;42.676;26.348;2022-07-21T11:51:01;98472.75;;;34.49;26.80
34566;BME280;20803;42.676;26.348;2022-07-21T11:53:28;98474.66;;;33.84;27.25
34566;BME280;20803;42.676;26.348;2022-07-21T11:55:53;98479.28;;;33.71;27.85
34566;BME280;20803;42.676;26.348;2022-07-21T11:58:19;98474.66;;;33.76;27.75
34566;BME280;20803;42.676;26.348;2022-07-21T12:00:46;98480.22;;;33.81;27.79
34566;BME280;20803;42.676;26.348;2022-07-21T12:03:12;98469.59;;;34.14;27.49
34566;BME280;20803;42.676;26.348;2022-07-21T12:05:39;98475.38;;;34.07;27.67
34566;BME280;20803;42.676;26.348;2022-07-21T12:08:06;98470.03;;;33.88;27.78
34566;BME280;20803;42.676;26.348;2022-07-21T12:10:32;98470.41;;;33.69;27.93
34566;BME280;20803;42.676;26.348;2022-07-21T12:13:05;98473.69;;;33.20;27.91
34566;BME280;20803;42.676;26.348;2022-07-21T12:15:42;98475.22;;;33.44;28.16
34566;BME280;20803;42.676;26.348;2022-07-21T12:18:26;98469.84;;;33.48;27.92
34566;BME280;20803;42.676;26.348;2022-07-21T12:21:03;98473.31;;;33.77;28.52
34566;BME280;20803;42.676;26.348;2022-07-21T12:23:31;98472.94;;;33.73;28.66
34566;BME280;20803;42.676;26.348;2022-07-21T12:25:58;98462.47;;;34.08;28.10
34566;BME280;20803;42.676;26.348;2022-07-21T12:28:46;98463.59;;;34.20;28.06
34566;BME280;20803;42.676;26.348;2022-07-21T12:31:17;98459.69;;;34.40;28.18
34566;BME280;20803;42.676;26.348;2022-07-21T12:33:46;98463.06;;;34.61;28.25
34566;BME280;20803;42.676;26.348;2022-07-21T12:36:12;98459.59;;;34.63;28.48
34566;BME280;20803;42.676;26.348;2022-07-21T12:38:43;98456.47;;;34.76;28.29
34566;BME280;20803;42.676;26.348;2022-07-21T12:41:15;98463.28;;;34.56;28.06
34566;BME280;20803;42.676;26.348;2022-07-21T12:43:43;98450.16;;;34.15;28.95
34566;BME280;20803;42.676;26.348;2022-07-21T12:46:14;98454.91;;;34.35;28.81
34566;BME280;20803;42.676;26.348;2022-07-21T12:48:41;98455.72;;;34.68;28.32
34566;BME280;20803;42.676;26.348;2022-07-21T12:51:13;98461.63;;;34.38;27.79
34566;BME280;20803;42.676;26.348;2022-07-21T12:53:48;98457.06;;;34.75;27.70
34566;BME280;20803;42.676;26.348;2022-07-21T12:56:18;98447.00;;;35.08;27.65
34566;BME280;20803;42.676;26.348;2022-07-21T12:58:46;98453.00;;;35.35;27.60
34566;BME280;20803;42.676;26.348;2022-07-21T13:01:13;98446.41;;;35.42;26.91
34566;BME280;20803;42.676;26.348;2022-07-21T13:03:40;98454.69;;;34.88;27.22
34566;BME280;20803;42.676;26.348;2022-07-21T13:06:06;98437.69;;;34.92;27.66
34566;BME280;20803;42.676;26.348;2022-07-21T13:08:33;98440.31;;;34.66;28.15
34566;BME280;20803;42.676;26.348;2022-07-21T13:10:59;98446.16;;;34.90;27.96
34566;BME280;20803;42.676;26.348;2022-07-21T13:13:25;98445.28;;;34.80;28.19
34566;BME280;20803;42.676;26.348;2022-07-21T13:15:52;98447.97;;;34.78;28.24
34566;BME280;20803;42.676;26.348;2022-07-21T13:18:18;98439.53;;;34.33;28.38
34566;BME280;20803;42.676;26.348;2022-07-21T13:20:43;98448.22;;;34.17;28.88
34566;BME280;20803;42.676;26.348;2022-07-21T13:23:09;98444.47;;;33.62;29.81
34566;BME280;20803;42.676;26.348;2022-07-21T13:25:35;98449.09;;;33.34;29.81
34566;BME280;20803;42.676;26.348;2022-07-21T13:28:02;98449.09;;;33.34;29.92
34566;BME280;20803;42.676;26.348;2022-07-21T13:30:27;98449.50;;;33.46;29.71